EST,Max TemperatureF,Mean TemperatureF,Min TemperatureF,Max Dew PointF,MeanDew PointF,Min DewpointF,Max Humidity, Mean Humidity, Min Humidity, Max Sea Level PressureIn, Mean Sea Level PressureIn, Min Sea Level PressureIn, Max VisibilityMiles, Mean VisibilityMiles, Min VisibilityMiles, Max Wind SpeedMPH, Mean Wind SpeedMPH, Max Gust SpeedMPH,PrecipitationIn, CloudCover, Events, WindDirDegrees
2012-11-1,53,45,37,37,32,19,93,69,33,29.86,29.82,29.79,10,10,7,15,7,20,0.00,7,Rain,246
2012-11-2,53,45,37,32,28,25,75,54,35,30.09,29.95,29.83,10,10,10,9,3,16,0.00,5,,291
2012-11-3,50,42,33,39,33,30,93,75,47,30.20,30.13,30.09,10,10,5,5,0,,0.00,7,Rain,66
2012-11-4,51,42,32,37,32,28,93,68,41,30.16,30.13,30.10,10,10,10,6,1,,0.00,6,,19
2012-11-5,50,40,30,32,29,27,100,74,40,30.20,30.15,30.11,10,10,7,5,0,,0.00,3,,45
2012-11-6,53,40,26,32,29,23,93,73,41,30.12,30.02,29.92,10,10,7,7,1,,0.00,2,,75
2012-11-7,57,44,32,32,30,27,100,67,36,30.09,29.96,29.90,10,10,7,7,1,,0.00,0,,41
2012-11-8,51,38,24,32,28,21,93,75,43,30.26,30.19,30.09,10,10,7,5,0,,0.00,0,,284
2012-11-9,59,42,26,34,30,23,93,72,36,30.32,30.24,30.20,10,10,7,7,1,,0.00,0,,216
2012-11-10,71,53,35,39,34,32,93,52,25,30.28,30.24,30.19,10,10,10,10,2,16,0.00,1,,210
2012-11-11,71,52,32,41,33,28,100,58,21,30.37,30.26,30.20,10,10,10,7,1,,0.00,0,,187
2012-11-12,69,50,32,52,42,30,94,68,40,30.44,30.20,30.02,10,9,2,13,5,23,0.00,4,Rain,220
2012-11-13,46,36,26,32,27,23,100,77,43,30.53,30.48,30.44,10,9,5,6,1,,0.00,2,,269
2012-11-14,44,34,23,27,25,21,93,74,46,30.54,30.48,30.38,10,10,10,9,1,,0.00,0,,60
2012-11-15,50,37,24,30,27,23,93,74,43,30.37,30.34,30.30,10,10,7,6,0,,0.00,0,,53
2012-11-16,51,37,23,32,26,21,100,73,38,30.49,30.41,30.35,10,9,0,8,1,,0.00,1,Fog,52
2012-11-17,59,42,24,32,26,21,93,67,25,30.57,30.51,30.47,10,10,5,8,1,,0.00,0,,58
2012-11-18,59,41,23,28,26,21,93,65,29,30.51,30.46,30.40,10,10,10,6,1,,0.00,0,,99
2012-11-19,55,40,26,36,29,23,93,73,41,30.41,30.33,30.21,10,10,10,4,0,,0.00,0,,355
2012-11-20,59,44,30,36,33,28,100,66,34,30.22,30.15,30.10,10,10,7,4,0,,0.00,4,,332
2012-11-21,62,46,30,34,32,28,100,70,30,30.25,30.21,30.15,10,10,7,4,0,,0.00,1,,49
2012-11-22,64,46,28,36,31,27,93,70,32,30.27,30.19,30.07,10,10,7,7,1,,0.00,0,,214
2012-11-23,53,42,32,46,33,19,100,67,38,30.16,30.03,29.94,10,10,2,13,5,24,0.00,4,Rain,261
2012-11-24,33,32,30,23,21,18,69,63,55,30.21,30.18,30.14,10,10,10,10,5,,0.00,8,,268
2012-11-25,44,34,24,27,21,19,80,61,37,30.15,30.04,29.93,10,10,10,13,3,17,0.00,1,,214
2012-11-26,53,40,28,36,29,23,87,62,35,30.22,30.15,30.05,10,10,7,6,0,,0.00,3,Rain,223
2012-11-27,41,38,35,37,33,30,93,85,81,30.33,30.28,30.19,10,7,4,6,1,,0.00,8,Rain,9
2012-11-28,44,34,24,32,25,19,100,75,39,30.43,30.38,30.31,10,9,4,10,2,16,0.00,2,,249
2012-11-29,48,34,19,28,22,18,93,72,34,30.46,30.38,30.30,10,10,7,7,1,,0.00,0,,206
2012-11-30,59,42,24,34,29,23,93,70,38,30.34,30.27,30.21,10,10,10,10,1,,0.00,2,,219